sensor_id;sensor_type;location;lat;lon;timestamp;P1;durP1;ratioP1;P2;durP2;ratioP2
79638;SDS011;69114;49.108;8.280;2023-11-21T00:01:43;7.15;;;2.53;;
79638;SDS011;69114;49.108;8.280;2023-11-21T00:04:09;8.70;;;2.73;;
79638;SDS011;69114;49.108;8.280;2023-11-21T00:06:34;6.05;;;2.60;;
79638;SDS011;69114;49.108;8.280;2023-11-21T00:08:59;9.55;;;2.40;;
79638;SDS011;69114;49.108;8.280;2023-11-21T00:11:25;6.25;;;2.65;;
79638;SDS011;69114;49.108;8.280;2023-11-21T00:13:50;10.50;;;2.85;;
79638;SDS011;69114;49.108;8.280;2023-11-21T00:16:16;7.43;;;2.72;;
79638;SDS011;69114;49.108;8.280;2023-11-21T00:18:42;4.28;;;2.08;;
79638;SDS011;69114;49.108;8.280;2023-11-21T00:21:07;4.05;;;2.70;;
79638;SDS011;69114;49.108;8.280;2023-11-21T00:23:34;5.00;;;2.67;;
79638;SDS011;69114;49.108;8.280;2023-11-21T00:25:59;7.35;;;2.85;;
79638;SDS011;69114;49.108;8.280;2023-11-21T00:28:25;6.78;;;2.95;;
79638;SDS011;69114;49.108;8.280;2023-11-21T00:30:51;3.53;;;2.40;;
79638;SDS011;69114;49.108;8.280;2023-11-21T00:33:16;6.43;;;2.17;;
79638;SDS011;69114;49.108;8.280;2023-11-21T00:35:42;8.03;;;2.73;;
79638;SDS011;69114;49.108;8.280;2023-11-21T00:38:07;7.40;;;2.75;;
79638;SDS011;69114;49.108;8.280;2023-11-21T00:40:33;5.47;;;2.25;;
79638;SDS011;69114;49.108;8.280;2023-11-21T00:42:58;6.05;;;2.33;;
79638;SDS011;69114;49.108;8.280;2023-11-21T00:45:24;7.05;;;2.88;;
79638;SDS011;69114;49.108;8.280;2023-11-21T00:47:50;4.25;;;2.42;;
79638;SDS011;69114;49.108;8.280;2023-11-21T00:50:15;6.32;;;1.95;;
79638;SDS011;69114;49.108;8.280;2023-11-21T00:52:40;4.15;;;2.13;;
79638;SDS011;69114;49.108;8.280;2023-11-21T00:55:06;7.88;;;2.53;;
79638;SDS011;69114;49.108;8.280;2023-11-21T00:57:32;8.52;;;2.28;;
79638;SDS011;69114;49.108;8.280;2023-11-21T00:59:58;5.13;;;2.35;;
79638;SDS011;69114;49.108;8.280;2023-11-21T01:02:23;3.38;;;2.13;;
79638;SDS011;69114;49.108;8.280;2023-11-21T01:04:50;6.25;;;2.50;;
79638;SDS011;69114;49.108;8.280;2023-11-21T01:07:15;5.90;;;2.30;;
79638;SDS011;69114;49.108;8.280;2023-11-21T01:09:41;6.60;;;2.47;;
79638;SDS011;69114;49.108;8.280;2023-11-21T01:12:06;5.53;;;2.20;;
79638;SDS011;69114;49.108;8.280;2023-11-21T01:14:32;6.22;;;2.38;;
79638;SDS011;69114;49.108;8.280;2023-11-21T01:16:57;5.28;;;2.40;;
79638;SDS011;69114;49.108;8.280;2023-11-21T01:19:22;5.78;;;2.10;;
79638;SDS011;69114;49.108;8.280;2023-11-21T01:21:48;4.85;;;2.30;;
79638;SDS011;69114;49.108;8.280;2023-11-21T01:24:14;3.25;;;1.92;;
79638;SDS011;69114;49.108;8.280;2023-11-21T01:26:39;5.03;;;2.50;;
79638;SDS011;69114;49.108;8.280;2023-11-21T01:29:04;4.15;;;2.05;;
79638;SDS011;69114;49.108;8.280;2023-11-21T01:31:30;5.28;;;2.10;;
79638;SDS011;69114;49.108;8.280;2023-11-21T01:33:56;2.83;;;1.75;;
79638;SDS011;69114;49.108;8.280;2023-11-21T01:36:22;6.32;;;2.22;;
79638;SDS011;69114;49.108;8.280;2023-11-21T01:38:47;3.95;;;1.90;;
79638;SDS011;69114;49.108;8.280;2023-11-21T01:41:15;6.60;;;2.28;;
79638;SDS011;69114;49.108;8.280;2023-11-21T01:43:41;4.40;;;2.20;;
79638;SDS011;69114;49.108;8.280;2023-11-21T01:46:06;7.28;;;2.25;;
79638;SDS011;69114;49.108;8.280;2023-11-21T01:48:33;3.08;;;1.98;;
79638;SDS011;69114;49.108;8.280;2023-11-21T01:50:59;2.47;;;1.60;;
79638;SDS011;69114;49.108;8.280;2023-11-21T01:53:25;9.13;;;2.38;;
79638;SDS011;69114;49.108;8.280;2023-11-21T01:55:51;4.63;;;1.90;;
79638;SDS011;69114;49.108;8.280;2023-11-21T01:58:18;8.50;;;2.03;;
79638;SDS011;69114;49.108;8.280;2023-11-21T02:00:45;5.28;;;2.20;;
79638;SDS011;69114;49.108;8.280;2023-11-21T02:03:10;4.78;;;1.77;;
79638;SDS011;69114;49.108;8.280;2023-11-21T02:05:35;5.10;;;1.83;;
79638;SDS011;69114;49.108;8.280;2023-11-21T02:08:01;5.32;;;2.42;;
79638;SDS011;69114;49.108;8.280;2023-11-21T02:10:28;3.15;;;1.92;;
79638;SDS011;69114;49.108;8.280;2023-11-21T02:12:54;6.10;;;2.30;;
79638;SDS011;69114;49.108;8.280;2023-11-21T02:15:21;7.45;;;2.50;;
79638;SDS011;69114;49.108;8.280;2023-11-21T02:17:48;2.90;;;2.20;;
79638;SDS011;69114;49.108;8.280;2023-11-21T02:20:16;3.42;;;1.88;;
79638;SDS011;69114;49.108;8.280;2023-11-21T02:22:43;3.50;;;1.98;;
79638;SDS011;69114;49.108;8.280;2023-11-21T02:25:14;6.28;;;2.40;;
79638;SDS011;69114;49.108;8.280;2023-11-21T02:27:39;3.05;;;2.22;;
79638;SDS011;69114;49.108;8.280;2023-11-21T02:30:05;8.68;;;2.80;;
79638;SDS011;69114;49.108;8.280;2023-11-21T02:32:32;8.50;;;2.35;;
79638;SDS011;69114;49.108;8.280;2023-11-21T02:34:58;2.63;;;1.90;;
79638;SDS011;69114;49.108;8.280;2023-11-21T02:37:26;6.13;;;2.15;;
79638;SDS011;69114;49.108;8.280;2023-11-21T02:39:51;4.80;;;2.08;;
79638;SDS011;69114;49.108;8.280;2023-11-21T02:42:17;3.92;;;2.13;;
79638;SDS011;69114;49.108;8.280;2023-11-21T02:44:43;4.80;;;2.65;;
79638;SDS011;69114;49.108;8.280;2023-11-21T02:47:08;5.45;;;2.42;;
79638;SDS011;69114;49.108;8.280;2023-11-21T02:49:34;5.00;;;2.40;;
79638;SDS011;69114;49.108;8.280;2023-11-21T02:52:00;4.70;;;2.22;;
79638;SDS011;69114;49.108;8.280;2023-11-21T02:54:26;4.80;;;2.35;;
79638;SDS011;69114;49.108;8.280;2023-11-21T02:56:52;3.45;;;2.15;;
79638;SDS011;69114;49.108;8.280;2023-11-21T02:59:17;4.93;;;2.70;;
79638;SDS011;69114;49.108;8.280;2023-11-21T03:01:44;5.60;;;2.95;;
79638;SDS011;69114;49.108;8.280;2023-11-21T03:04:10;3.95;;;2.10;;
79638;SDS011;69114;49.108;8.280;2023-11-21T03:06:35;5.68;;;2.63;;
79638;SDS011;69114;49.108;8.280;2023-11-21T03:09:01;6.90;;;2.30;;
79638;SDS011;69114;49.108;8.280;2023-11-21T03:11:26;6.40;;;2.33;;
79638;SDS011;69114;49.108;8.280;2023-11-21T03:13:51;4.90;;;2.28;;
79638;SDS011;69114;49.108;8.280;2023-11-21T03:16:18;6.97;;;2.70;;
79638;SDS011;69114;49.108;8.280;2023-11-21T03:18:44;3.10;;;2.13;;
79638;SDS011;69114;49.108;8.280;2023-11-21T03:21:09;3.28;;;2.10;;
79638;SDS011;69114;49.108;8.280;2023-11-21T03:23:35;4.65;;;2.33;;
79638;SDS011;69114;49.108;8.280;2023-11-21T03:26:00;7.45;;;2.30;;
79638;SDS011;69114;49.108;8.280;2023-11-21T03:28:26;4.53;;;2.08;;
79638;SDS011;69114;49.108;8.280;2023-11-21T03:30:52;4.60;;;2.45;;
79638;SDS011;69114;49.108;8.280;2023-11-21T03:33:18;4.65;;;2.28;;
79638;SDS011;69114;49.108;8.280;2023-11-21T03:35:43;7.32;;;2.70;;
79638;SDS011;69114;49.108;8.280;2023-11-21T03:38:10;3.13;;;1.85;;
79638;SDS011;69114;49.108;8.280;2023-11-21T03:40:35;4.97;;;2.40;;
79638;SDS011;69114;49.108;8.280;2023-11-21T03:43:01;3.75;;;1.85;;
79638;SDS011;69114;49.108;8.280;2023-11-21T03:45:26;3.50;;;2.00;;
79638;SDS011;69114;49.108;8.280;2023-11-21T03:47:52;5.63;;;2.00;;
79638;SDS011;69114;49.108;8.280;2023-11-21T03:50:17;2.95;;;2.00;;
79638;SDS011;69114;49.108;8.280;2023-11-21T03:52:42;4.00;;;1.80;;
79638;SDS011;69114;49.108;8.280;2023-11-21T03:55:08;2.78;;;1.98;;
79638;SDS011;69114;49.108;8.280;2023-11-21T03:57:33;7.20;;;2.10;;
79638;SDS011;69114;49.108;8.280;2023-11-21T03:59:59;3.28;;;2.22;;
79638;SDS011;69114;49.108;8.280;2023-11-21T04:02:24;3.30;;;2.20;;
79638;SDS011;69114;49.108;8.280;2023-11-21T04:04:51;7.25;;;2.47;;
79638;SDS011;69114;49.108;8.280;2023-11-21T04:07:16;5.03;;;2.08;;
79638;SDS011;69114;49.108;8.280;2023-11-21T04:09:42;5.05;;;2.50;;
79638;SDS011;69114;49.108;8.280;2023-11-21T04:12:08;3.55;;;2.28;;
79638;SDS011;69114;49.108;8.280;2023-11-21T04:14:37;4.32;;;2.45;;
79638;SDS011;69114;49.108;8.280;2023-11-21T04:17:03;7.65;;;2.53;;
79638;SDS011;69114;49.108;8.280;2023-11-21T04:19:29;4.40;;;2.45;;
79638;SDS011;69114;49.108;8.280;2023-11-21T04:21:55;3.40;;;2.15;;
79638;SDS011;69114;49.108;8.280;2023-11-21T04:24:20;5.00;;;2.70;;
79638;SDS011;69114;49.108;8.280;2023-11-21T04:26:45;5.45;;;2.13;;
79638;SDS011;69114;49.108;8.280;2023-11-21T04:29:11;6.68;;;2.75;;
79638;SDS011;69114;49.108;8.280;2023-11-21T04:31:37;4.95;;;2.58;;
79638;SDS011;69114;49.108;8.280;2023-11-21T04:34:02;4.65;;;2.40;;
79638;SDS011;69114;49.108;8.280;2023-11-21T04:36:29;6.43;;;1.95;;
79638;SDS011;69114;49.108;8.280;2023-11-21T04:38:55;3.95;;;2.42;;
79638;SDS011;69114;49.108;8.280;2023-11-21T04:41:21;3.10;;;2.03;;
79638;SDS011;69114;49.108;8.280;2023-11-21T04:43:46;3.83;;;1.93;;
79638;SDS011;69114;49.108;8.280;2023-11-21T04:46:11;3.83;;;2.33;;
79638;SDS011;69114;49.108;8.280;2023-11-21T04:48:37;3.30;;;2.22;;
79638;SDS011;69114;49.108;8.280;2023-11-21T04:51:02;5.23;;;2.10;;
79638;SDS011;69114;49.108;8.280;2023-11-21T04:53:29;5.22;;;2.38;;
79638;SDS011;69114;49.108;8.280;2023-11-21T04:55:54;3.65;;;2.42;;
79638;SDS011;69114;49.108;8.280;2023-11-21T04:58:20;6.37;;;2.10;;
79638;SDS011;69114;49.108;8.280;2023-11-21T05:00:45;3.38;;;2.20;;
79638;SDS011;69114;49.108;8.280;2023-11-21T05:03:11;5.35;;;2.25;;
79638;SDS011;69114;49.108;8.280;2023-11-21T05:05:37;4.13;;;2.70;;
79638;SDS011;69114;49.108;8.280;2023-11-21T05:08:02;6.53;;;2.80;;
79638;SDS011;69114;49.108;8.280;2023-11-21T05:10:28;7.95;;;2.63;;
79638;SDS011;69114;49.108;8.280;2023-11-21T05:12:55;8.32;;;2.97;;
79638;SDS011;69114;49.108;8.280;2023-11-21T05:15:20;5.07;;;2.67;;
79638;SDS011;69114;49.108;8.280;2023-11-21T05:17:46;9.18;;;2.85;;
79638;SDS011;69114;49.108;8.280;2023-11-21T05:20:14;3.78;;;2.63;;
79638;SDS011;69114;49.108;8.280;2023-11-21T05:22:46;5.57;;;3.20;;
79638;SDS011;69114;49.108;8.280;2023-11-21T05:25:13;4.18;;;2.35;;
79638;SDS011;69114;49.108;8.280;2023-11-21T05:27:38;7.53;;;3.20;;
79638;SDS011;69114;49.108;8.280;2023-11-21T05:30:05;7.50;;;2.97;;
79638;SDS011;69114;49.108;8.280;2023-11-21T05:32:33;3.92;;;3.15;;
79638;SDS011;69114;49.108;8.280;2023-11-21T05:34:59;3.90;;;2.83;;
79638;SDS011;69114;49.108;8.280;2023-11-21T05:37:24;8.77;;;3.70;;
79638;SDS011;69114;49.108;8.280;2023-11-21T05:39:51;7.07;;;3.20;;
79638;SDS011;69114;49.108;8.280;2023-11-21T05:42:17;4.93;;;3.53;;
79638;SDS011;69114;49.108;8.280;2023-11-21T05:44:43;9.32;;;4.00;;
79638;SDS011;69114;49.108;8.280;2023-11-21T05:47:09;7.90;;;3.15;;
79638;SDS011;69114;49.108;8.280;2023-11-21T05:49:34;4.63;;;3.20;;
79638;SDS011;69114;49.108;8.280;2023-11-21T05:52:00;7.22;;;3.85;;
79638;SDS011;69114;49.108;8.280;2023-11-21T05:54:26;6.38;;;3.30;;
79638;SDS011;69114;49.108;8.280;2023-11-21T05:56:51;8.90;;;3.13;;
79638;SDS011;69114;49.108;8.280;2023-11-21T05:59:16;10.82;;;3.63;;
79638;SDS011;69114;49.108;8.280;2023-11-21T06:01:42;5.50;;;3.42;;
79638;SDS011;69114;49.108;8.280;2023-11-21T06:04:07;8.33;;;3.77;;
79638;SDS011;69114;49.108;8.280;2023-11-21T06:06:35;6.35;;;3.42;;
79638;SDS011;69114;49.108;8.280;2023-11-21T06:09:01;12.07;;;3.53;;
79638;SDS011;69114;49.108;8.280;2023-11-21T06:11:26;7.95;;;3.67;;
79638;SDS011;69114;49.108;8.280;2023-11-21T06:13:52;5.90;;;3.07;;
79638;SDS011;69114;49.108;8.280;2023-11-21T06:16:18;7.88;;;3.70;;
79638;SDS011;69114;49.108;8.280;2023-11-21T06:18:45;5.25;;;3.35;;
79638;SDS011;69114;49.108;8.280;2023-11-21T06:21:11;6.13;;;3.13;;
79638;SDS011;69114;49.108;8.280;2023-11-21T06:23:36;6.30;;;3.53;;
79638;SDS011;69114;49.108;8.280;2023-11-21T06:26:01;7.05;;;4.13;;
79638;SDS011;69114;49.108;8.280;2023-11-21T06:28:27;6.60;;;3.83;;
79638;SDS011;69114;49.108;8.280;2023-11-21T06:30:52;6.65;;;4.03;;
79638;SDS011;69114;49.108;8.280;2023-11-21T06:33:18;6.03;;;4.28;;
79638;SDS011;69114;49.108;8.280;2023-11-21T06:35:44;9.68;;;4.30;;
79638;SDS011;69114;49.108;8.280;2023-11-21T06:38:09;9.30;;;4.82;;
79638;SDS011;69114;49.108;8.280;2023-11-21T06:40:35;10.57;;;4.53;;
79638;SDS011;69114;49.108;8.280;2023-11-21T06:43:00;12.27;;;5.35;;
79638;SDS011;69114;49.108;8.280;2023-11-21T06:45:26;7.63;;;4.80;;
79638;SDS011;69114;49.108;8.280;2023-11-21T06:47:51;8.00;;;5.40;;
79638;SDS011;69114;49.108;8.280;2023-11-21T06:50:17;18.13;;;4.83;;
79638;SDS011;69114;49.108;8.280;2023-11-21T06:52:42;9.05;;;4.78;;
79638;SDS011;69114;49.108;8.280;2023-11-21T06:55:08;10.32;;;5.45;;
79638;SDS011;69114;49.108;8.280;2023-11-21T06:57:34;8.85;;;5.22;;
79638;SDS011;69114;49.108;8.280;2023-11-21T07:00:00;12.60;;;5.18;;
79638;SDS011;69114;49.108;8.280;2023-11-21T07:02:25;14.05;;;5.82;;
79638;SDS011;69114;49.108;8.280;2023-11-21T07:04:51;10.23;;;4.80;;
79638;SDS011;69114;49.108;8.280;2023-11-21T07:07:16;9.75;;;5.55;;
79638;SDS011;69114;49.108;8.280;2023-11-21T07:09:41;8.63;;;5.10;;
79638;SDS011;69114;49.108;8.280;2023-11-21T07:12:07;8.10;;;4.97;;
79638;SDS011;69114;49.108;8.280;2023-11-21T07:14:35;9.02;;;5.00;;
79638;SDS011;69114;49.108;8.280;2023-11-21T07:17:02;8.75;;;4.82;;
79638;SDS011;69114;49.108;8.280;2023-11-21T07:19:27;7.80;;;4.93;;
79638;SDS011;69114;49.108;8.280;2023-11-21T07:21:53;8.67;;;5.27;;
79638;SDS011;69114;49.108;8.280;2023-11-21T07:24:18;8.40;;;4.88;;
79638;SDS011;69114;49.108;8.280;2023-11-21T07:26:43;11.25;;;5.22;;
79638;SDS011;69114;49.108;8.280;2023-11-21T07:29:09;6.72;;;4.97;;
79638;SDS011;69114;49.108;8.280;2023-11-21T07:31:36;8.10;;;4.82;;
79638;SDS011;69114;49.108;8.280;2023-11-21T07:34:02;6.35;;;4.45;;
79638;SDS011;69114;49.108;8.280;2023-11-21T07:36:27;6.70;;;4.85;;
79638;SDS011;69114;49.108;8.280;2023-11-21T07:38:53;6.32;;;4.45;;
79638;SDS011;69114;49.108;8.280;2023-11-21T07:41:19;8.10;;;4.70;;
79638;SDS011;69114;49.108;8.280;2023-11-21T07:43:44;6.03;;;4.57;;
79638;SDS011;69114;49.108;8.280;2023-11-21T07:46:11;6.57;;;4.63;;
79638;SDS011;69114;49.108;8.280;2023-11-21T07:48:40;6.75;;;3.90;;
79638;SDS011;69114;49.108;8.280;2023-11-21T07:51:07;6.50;;;3.97;;
79638;SDS011;69114;49.108;8.280;2023-11-21T07:53:33;7.63;;;4.32;;
79638;SDS011;69114;49.108;8.280;2023-11-21T07:56:03;6.00;;;3.92;;
79638;SDS011;69114;49.108;8.280;2023-11-21T07:58:29;5.05;;;3.85;;
79638;SDS011;69114;49.108;8.280;2023-11-21T08:00:54;7.63;;;4.33;;
79638;SDS011;69114;49.108;8.280;2023-11-21T08:03:20;9.63;;;4.60;;
79638;SDS011;69114;49.108;8.280;2023-11-21T08:05:46;8.10;;;5.07;;
79638;SDS011;69114;49.108;8.280;2023-11-21T08:08:11;8.90;;;4.70;;
79638;SDS011;69114;49.108;8.280;2023-11-21T08:10:36;5.63;;;4.07;;
79638;SDS011;69114;49.108;8.280;2023-11-21T08:13:02;8.60;;;4.72;;
79638;SDS011;69114;49.108;8.280;2023-11-21T08:15:28;8.35;;;4.50;;
79638;SDS011;69114;49.108;8.280;2023-11-21T08:17:54;7.82;;;4.03;;
79638;SDS011;69114;49.108;8.280;2023-11-21T08:20:19;7.30;;;4.35;;
79638;SDS011;69114;49.108;8.280;2023-11-21T08:22:45;6.18;;;4.38;;
79638;SDS011;69114;49.108;8.280;2023-11-21T08:25:12;9.77;;;3.60;;
79638;SDS011;69114;49.108;8.280;2023-11-21T08:27:38;7.30;;;4.72;;
79638;SDS011;69114;49.108;8.280;2023-11-21T08:30:03;5.80;;;3.70;;
79638;SDS011;69114;49.108;8.280;2023-11-21T08:32:29;5.28;;;3.53;;
79638;SDS011;69114;49.108;8.280;2023-11-21T08:34:57;6.03;;;4.03;;
79638;SDS011;69114;49.108;8.280;2023-11-21T08:37:22;6.22;;;3.83;;
79638;SDS011;69114;49.108;8.280;2023-11-21T08:39:48;4.28;;;3.35;;
79638;SDS011;69114;49.108;8.280;2023-11-21T08:42:14;7.05;;;4.30;;
79638;SDS011;69114;49.108;8.280;2023-11-21T08:44:40;8.52;;;5.38;;
79638;SDS011;69114;49.108;8.280;2023-11-21T08:47:05;7.15;;;4.20;;
79638;SDS011;69114;49.108;8.280;2023-11-21T08:49:31;8.27;;;5.05;;
79638;SDS011;69114;49.108;8.280;2023-11-21T08:51:57;9.68;;;5.03;;
79638;SDS011;69114;49.108;8.280;2023-11-21T08:54:24;6.43;;;4.35;;
79638;SDS011;69114;49.108;8.280;2023-11-21T08:56:50;8.85;;;5.45;;
79638;SDS011;69114;49.108;8.280;2023-11-21T08:59:16;10.90;;;5.80;;
79638;SDS011;69114;49.108;8.280;2023-11-21T09:01:41;10.23;;;6.30;;
79638;SDS011;69114;49.108;8.280;2023-11-21T09:04:07;8.55;;;5.25;;
79638;SDS011;69114;49.108;8.280;2023-11-21T09:06:32;12.37;;;6.63;;
79638;SDS011;69114;49.108;8.280;2023-11-21T09:08:57;8.85;;;5.13;;
79638;SDS011;69114;49.108;8.280;2023-11-21T09:11:23;10.13;;;5.20;;
79638;SDS011;69114;49.108;8.280;2023-11-21T09:13:50;9.13;;;5.00;;
79638;SDS011;69114;49.108;8.280;2023-11-21T09:16:16;9.70;;;5.80;;
79638;SDS011;69114;49.108;8.280;2023-11-21T09:18:42;10.07;;;5.80;;
79638;SDS011;69114;49.108;8.280;2023-11-21T09:21:07;8.52;;;5.50;;
79638;SDS011;69114;49.108;8.280;2023-11-21T09:23:33;8.38;;;5.07;;
79638;SDS011;69114;49.108;8.280;2023-11-21T09:25:59;11.88;;;7.18;;
79638;SDS011;69114;49.108;8.280;2023-11-21T09:28:25;10.70;;;6.50;;
79638;SDS011;69114;49.108;8.280;2023-11-21T09:30:52;8.43;;;4.68;;
79638;SDS011;69114;49.108;8.280;2023-11-21T09:33:17;6.72;;;3.50;;
79638;SDS011;69114;49.108;8.280;2023-11-21T09:35:43;10.15;;;6.05;;
79638;SDS011;69114;49.108;8.280;2023-11-21T09:38:09;9.55;;;5.78;;
79638;SDS011;69114;49.108;8.280;2023-11-21T09:40:35;8.70;;;5.30;;
79638;SDS011;69114;49.108;8.280;2023-11-21T09:43:06;6.35;;;3.88;;
79638;SDS011;69114;49.108;8.280;2023-11-21T09:45:36;7.85;;;4.75;;
79638;SDS011;69114;49.108;8.280;2023-11-21T09:48:03;5.72;;;3.28;;
79638;SDS011;69114;49.108;8.280;2023-11-21T09:50:31;6.95;;;4.50;;
79638;SDS011;69114;49.108;8.280;2023-11-21T09:55:43;6.30;;;3.28;;
79638;SDS011;69114;49.108;8.280;2023-11-21T09:58:10;10.02;;;5.22;;
79638;SDS011;69114;49.108;8.280;2023-11-21T10:00:47;9.57;;;5.22;;
79638;SDS011;69114;49.108;8.280;2023-11-21T10:03:14;8.25;;;4.22;;
79638;SDS011;69114;49.108;8.280;2023-11-21T10:05:41;8.52;;;5.18;;
79638;SDS011;69114;49.108;8.280;2023-11-21T10:08:08;7.38;;;4.65;;
79638;SDS011;69114;49.108;8.280;2023-11-21T10:10:35;8.32;;;5.07;;
79638;SDS011;69114;49.108;8.280;2023-11-21T10:13:09;7.90;;;5.00;;
79638;SDS011;69114;49.108;8.280;2023-11-21T10:15:37;5.70;;;4.32;;
79638;SDS011;69114;49.108;8.280;2023-11-21T10:18:03;5.45;;;3.63;;
79638;SDS011;69114;49.108;8.280;2023-11-21T10:20:31;5.20;;;3.03;;
79638;SDS011;69114;49.108;8.280;2023-11-21T10:22:59;5.45;;;2.80;;
79638;SDS011;69114;49.108;8.280;2023-11-21T10:25:27;4.85;;;3.10;;
79638;SDS011;69114;49.108;8.280;2023-11-21T10:27:57;7.80;;;4.38;;
79638;SDS011;69114;49.108;8.280;2023-11-21T10:30:27;7.18;;;4.05;;
79638;SDS011;69114;49.108;8.280;2023-11-21T10:33:00;5.57;;;3.95;;
79638;SDS011;69114;49.108;8.280;2023-11-21T10:35:38;5.43;;;3.53;;
79638;SDS011;69114;49.108;8.280;2023-11-21T10:38:05;4.22;;;3.00;;
79638;SDS011;69114;49.108;8.280;2023-11-21T10:40:30;6.82;;;4.50;;
79638;SDS011;69114;49.108;8.280;2023-11-21T10:43:01;8.15;;;4.18;;
79638;SDS011;69114;49.108;8.280;2023-11-21T10:45:31;5.78;;;4.07;;
79638;SDS011;69114;49.108;8.280;2023-11-21T10:47:56;6.30;;;4.43;;
79638;SDS011;69114;49.108;8.280;2023-11-21T10:50:22;6.35;;;3.85;;
79638;SDS011;69114;49.108;8.280;2023-11-21T10:52:48;7.00;;;4.07;;
79638;SDS011;69114;49.108;8.280;2023-11-21T10:55:17;7.03;;;4.00;;
79638;SDS011;69114;49.108;8.280;2023-11-21T10:57:46;6.97;;;4.50;;
79638;SDS011;69114;49.108;8.280;2023-11-21T11:00:14;6.32;;;4.55;;
79638;SDS011;69114;49.108;8.280;2023-11-21T11:02:41;5.60;;;3.97;;
79638;SDS011;69114;49.108;8.280;2023-11-21T11:05:07;4.68;;;2.83;;
79638;SDS011;69114;49.108;8.280;2023-11-21T11:07:36;9.30;;;4.35;;
79638;SDS011;69114;49.108;8.280;2023-11-21T11:10:05;5.25;;;3.30;;
79638;SDS011;69114;49.108;8.280;2023-11-21T11:12:33;4.60;;;3.67;;
79638;SDS011;69114;49.108;8.280;2023-11-21T11:15:00;6.18;;;4.40;;
79638;SDS011;69114;49.108;8.280;2023-11-21T11:17:28;7.32;;;4.68;;
79638;SDS011;69114;49.108;8.280;2023-11-21T11:19:53;5.25;;;3.97;;
79638;SDS011;69114;49.108;8.280;2023-11-21T11:23:22;4.75;;;3.08;;
79638;SDS011;69114;49.108;8.280;2023-11-21T11:28:00;4.57;;;3.17;;
79638;SDS011;69114;49.108;8.280;2023-11-21T11:30:52;7.72;;;4.88;;
79638;SDS011;69114;49.108;8.280;2023-11-21T11:36:02;6.53;;;3.38;;
79638;SDS011;69114;49.108;8.280;2023-11-21T11:38:38;6.45;;;4.05;;
79638;SDS011;69114;49.108;8.280;2023-11-21T11:41:04;8.70;;;4.78;;
79638;SDS011;69114;49.108;8.280;2023-11-21T11:43:34;7.53;;;4.85;;
79638;SDS011;69114;49.108;8.280;2023-11-21T11:46:09;7.40;;;4.97;;
79638;SDS011;69114;49.108;8.280;2023-11-21T11:48:38;6.30;;;4.50;;
79638;SDS011;69114;49.108;8.280;2023-11-21T11:51:14;6.57;;;4.20;;
79638;SDS011;69114;49.108;8.280;2023-11-21T11:53:42;5.00;;;3.15;;
79638;SDS011;69114;49.108;8.280;2023-11-21T11:58:56;5.30;;;3.17;;
79638;SDS011;69114;49.108;8.280;2023-11-21T12:01:32;7.80;;;5.03;;
79638;SDS011;69114;49.108;8.280;2023-11-21T12:06:40;7.05;;;4.15;;
79638;SDS011;69114;49.108;8.280;2023-11-21T12:09:06;3.58;;;2.30;;
79638;SDS011;69114;49.108;8.280;2023-11-21T12:11:32;5.68;;;3.33;;
79638;SDS011;69114;49.108;8.280;2023-11-21T12:13:58;7.00;;;4.00;;
79638;SDS011;69114;49.108;8.280;2023-11-21T12:16:25;5.00;;;3.55;;
79638;SDS011;69114;49.108;8.280;2023-11-21T12:18:52;5.43;;;3.22;;
79638;SDS011;69114;49.108;8.280;2023-11-21T12:21:19;6.68;;;4.18;;
79638;SDS011;69114;49.108;8.280;2023-11-21T12:23:45;4.25;;;2.65;;
79638;SDS011;69114;49.108;8.280;2023-11-21T12:26:12;5.55;;;3.33;;
79638;SDS011;69114;49.108;8.280;2023-11-21T12:28:38;4.88;;;3.20;;
79638;SDS011;69114;49.108;8.280;2023-11-21T12:31:04;5.38;;;3.15;;
79638;SDS011;69114;49.108;8.280;2023-11-21T12:33:32;5.00;;;3.30;;
79638;SDS011;69114;49.108;8.280;2023-11-21T12:35:58;4.57;;;3.42;;
79638;SDS011;69114;49.108;8.280;2023-11-21T12:38:23;4.72;;;2.88;;
79638;SDS011;69114;49.108;8.280;2023-11-21T12:40:49;6.15;;;3.78;;
79638;SDS011;69114;49.108;8.280;2023-11-21T12:43:15;7.25;;;4.35;;
79638;SDS011;69114;49.108;8.280;2023-11-21T12:45:43;4.00;;;2.85;;
79638;SDS011;69114;49.108;8.280;2023-11-21T12:48:09;6.70;;;4.35;;
79638;SDS011;69114;49.108;8.280;2023-11-21T12:50:36;3.60;;;3.17;;
79638;SDS011;69114;49.108;8.280;2023-11-21T12:53:06;4.88;;;3.22;;
79638;SDS011;69114;49.108;8.280;2023-11-21T12:55:35;7.18;;;4.05;;
79638;SDS011;69114;49.108;8.280;2023-11-21T12:58:03;4.45;;;3.00;;
79638;SDS011;69114;49.108;8.280;2023-11-21T13:00:37;7.47;;;3.53;;
79638;SDS011;69114;49.108;8.280;2023-11-21T13:03:08;7.20;;;4.03;;
79638;SDS011;69114;49.108;8.280;2023-11-21T13:05:37;5.85;;;3.85;;
79638;SDS011;69114;49.108;8.280;2023-11-21T13:08:05;5.40;;;4.10;;
79638;SDS011;69114;49.108;8.280;2023-11-21T13:10:36;6.75;;;4.47;;
79638;SDS011;69114;49.108;8.280;2023-11-21T13:13:05;6.10;;;3.80;;
79638;SDS011;69114;49.108;8.280;2023-11-21T13:15:34;6.30;;;4.57;;
79638;SDS011;69114;49.108;8.280;2023-11-21T13:18:03;7.28;;;4.35;;
79638;SDS011;69114;49.108;8.280;2023-11-21T13:20:28;7.22;;;4.25;;
79638;SDS011;69114;49.108;8.280;2023-11-21T13:22:57;6.57;;;4.40;;
79638;SDS011;69114;49.108;8.280;2023-11-21T13:25:27;6.78;;;4.35;;
79638;SDS011;69114;49.108;8.280;2023-11-21T13:27:59;4.78;;;3.20;;
79638;SDS011;69114;49.108;8.280;2023-11-21T13:30:28;4.63;;;2.63;;
79638;SDS011;69114;49.108;8.280;2023-11-21T13:33:02;5.57;;;3.85;;
79638;SDS011;69114;49.108;8.280;2023-11-21T13:35:31;7.55;;;3.83;;
79638;SDS011;69114;49.108;8.280;2023-11-21T13:38:07;5.97;;;3.72;;
79638;SDS011;69114;49.108;8.280;2023-11-21T13:40:34;5.63;;;3.75;;
79638;SDS011;69114;49.108;8.280;2023-11-21T13:43:07;6.07;;;4.13;;
79638;SDS011;69114;49.108;8.280;2023-11-21T13:45:35;8.23;;;4.70;;
79638;SDS011;69114;49.108;8.280;2023-11-21T13:48:11;8.27;;;4.07;;
79638;SDS011;69114;49.108;8.280;2023-11-21T13:50:39;7.30;;;4.10;;
79638;SDS011;69114;49.108;8.280;2023-11-21T13:53:11;5.38;;;3.55;;
79638;SDS011;69114;49.108;8.280;2023-11-21T13:55:47;8.27;;;3.45;;
79638;SDS011;69114;49.108;8.280;2023-11-21T13:58:14;3.88;;;3.08;;
79638;SDS011;69114;49.108;8.280;2023-11-21T14:00:48;4.82;;;3.63;;
79638;SDS011;69114;49.108;8.280;2023-11-21T14:03:21;6.22;;;4.53;;
79638;SDS011;69114;49.108;8.280;2023-11-21T14:05:48;4.82;;;3.58;;
79638;SDS011;69114;49.108;8.280;2023-11-21T14:08:17;5.03;;;3.55;;
79638;SDS011;69114;49.108;8.280;2023-11-21T14:10:49;4.88;;;3.60;;
79638;SDS011;69114;49.108;8.280;2023-11-21T14:13:16;4.78;;;3.42;;
79638;SDS011;69114;49.108;8.280;2023-11-21T14:15:42;4.93;;;2.53;;
79638;SDS011;69114;49.108;8.280;2023-11-21T14:18:11;4.15;;;2.13;;
79638;SDS011;69114;49.108;8.280;2023-11-21T14:20:39;6.07;;;3.60;;
79638;SDS011;69114;49.108;8.280;2023-11-21T14:23:06;7.25;;;3.33;;
79638;SDS011;69114;49.108;8.280;2023-11-21T14:25:34;3.90;;;2.70;;
79638;SDS011;69114;49.108;8.280;2023-11-21T14:30:28;3.45;;;2.15;;
79638;SDS011;69114;49.108;8.280;2023-11-21T14:32:56;4.35;;;2.67;;
79638;SDS011;69114;49.108;8.280;2023-11-21T14:35:22;6.75;;;2.92;;
79638;SDS011;69114;49.108;8.280;2023-11-21T14:37:47;4.20;;;2.78;;
79638;SDS011;69114;49.108;8.280;2023-11-21T14:40:13;4.85;;;2.72;;
79638;SDS011;69114;49.108;8.280;2023-11-21T14:42:40;4.13;;;3.13;;
79638;SDS011;69114;49.108;8.280;2023-11-21T14:45:07;2.67;;;2.20;;
79638;SDS011;69114;49.108;8.280;2023-11-21T14:47:33;5.30;;;2.83;;
79638;SDS011;69114;49.108;8.280;2023-11-21T14:50:00;4.82;;;2.80;;
79638;SDS011;69114;49.108;8.280;2023-11-21T14:52:48;4.93;;;2.75;;
79638;SDS011;69114;49.108;8.280;2023-11-21T14:55:24;6.55;;;3.17;;
79638;SDS011;69114;49.108;8.280;2023-11-21T14:57:57;5.15;;;2.83;;
79638;SDS011;69114;49.108;8.280;2023-11-21T15:00:27;5.22;;;2.42;;
79638;SDS011;69114;49.108;8.280;2023-11-21T15:03:01;5.28;;;2.55;;